createdAt,value
2023-04-08T00:00:51.643Z,1016.10
2023-04-08T00:01:51.707Z,1016.11
2023-04-08T00:02:51.688Z,1016.10
2023-04-08T00:03:51.743Z,1016.10
2023-04-08T00:04:51.699Z,1016.11
2023-04-08T00:05:51.622Z,1016.12
2023-04-08T00:06:51.577Z,1016.14
2023-04-08T00:07:51.596Z,1016.15
2023-04-08T00:08:51.728Z,1016.15
2023-04-08T00:09:51.571Z,1016.12
2023-04-08T00:10:51.534Z,1016.12
2023-04-08T00:11:51.534Z,1016.12
2023-04-08T00:12:51.527Z,1016.14
2023-04-08T00:13:51.510Z,1016.15
2023-04-08T00:14:51.557Z,1016.16
2023-04-08T00:15:51.490Z,1016.14
2023-04-08T00:16:51.546Z,1016.12
2023-04-08T00:17:51.504Z,1016.13
2023-04-08T00:18:51.810Z,1016.13
2023-04-08T00:19:51.471Z,1016.12
2023-04-08T00:20:51.428Z,1016.12
2023-04-08T00:21:51.427Z,1016.12
2023-04-08T00:22:51.418Z,1016.13
2023-04-08T00:23:51.407Z,1016.11
2023-04-08T00:24:51.434Z,1016.08
2023-04-08T00:25:51.386Z,1016.10
2023-04-08T00:26:51.369Z,1016.10
2023-04-08T00:27:51.392Z,1016.11
2023-04-08T00:28:51.680Z,1016.10
2023-04-08T00:29:51.357Z,1016.13
2023-04-08T00:30:51.357Z,1016.16
2023-04-08T00:31:51.341Z,1016.19
2023-04-08T00:32:51.352Z,1016.21
2023-04-08T00:33:51.298Z,1016.22
2023-04-08T00:34:51.321Z,1016.20
2023-04-08T00:35:51.317Z,1016.21
2023-04-08T00:36:51.273Z,1016.21
2023-04-08T00:37:51.279Z,1016.20
2023-04-08T00:38:51.361Z,1016.17
2023-04-08T00:39:51.249Z,1016.16
2023-04-08T00:40:51.226Z,1016.14
2023-04-08T00:41:51.226Z,1016.14
2023-04-08T00:42:51.202Z,1016.10
2023-04-08T00:43:51.196Z,1016.11
2023-04-08T00:44:51.204Z,1016.11
2023-04-08T00:45:51.203Z,1016.12
2023-04-08T00:46:51.161Z,1016.11
2023-04-08T00:47:51.186Z,1016.10
2023-04-08T00:48:51.382Z,1016.08
2023-04-08T00:49:51.126Z,1016.08
2023-04-08T00:50:51.124Z,1016.06
2023-04-08T00:51:51.100Z,1016.07
2023-04-08T00:52:51.099Z,1016.06
2023-04-08T00:53:51.109Z,1016.08
2023-04-08T00:54:51.080Z,1016.07
2023-04-08T00:55:51.062Z,1016.08
2023-04-08T00:56:51.067Z,1016.07
2023-04-08T00:57:51.060Z,1016.07
2023-04-08T00:58:51.420Z,1016.10
2023-04-08T00:59:51.074Z,1016.11
2023-04-08T01:00:51.028Z,1016.11
2023-04-08T01:01:51.221Z,1016.10
2023-04-08T01:02:51.084Z,1016.13
2023-04-08T01:03:51.104Z,1016.15
2023-04-08T01:04:50.971Z,1016.15
2023-04-08T01:05:50.968Z,1016.15
2023-04-08T01:06:50.979Z,1016.14
2023-04-08T01:07:50.961Z,1016.17
2023-04-08T01:08:51.216Z,1016.17
2023-04-08T01:09:50.945Z,1016.17
2023-04-08T01:10:50.918Z,1016.17
2023-04-08T01:11:50.903Z,1016.19
2023-04-08T01:12:50.885Z,1016.18
2023-04-08T01:13:50.899Z,1016.18
2023-04-08T01:14:50.891Z,1016.18
2023-04-08T01:15:50.932Z,1016.19
2023-04-08T01:16:50.914Z,1016.20
2023-04-08T01:17:50.970Z,1016.22
2023-04-08T01:18:51.134Z,1016.24
2023-04-08T01:19:50.822Z,1016.28
2023-04-08T01:20:50.806Z,1016.30
2023-04-08T01:21:50.826Z,1016.30
2023-04-08T01:22:50.789Z,1016.31
2023-04-08T01:23:50.785Z,1016.32
2023-04-08T01:24:50.779Z,1016.32
2023-04-08T01:25:50.763Z,1016.34
2023-04-08T01:26:50.745Z,1016.34
2023-04-08T01:27:50.720Z,1016.34
2023-04-08T01:28:50.873Z,1016.34
2023-04-08T01:29:50.742Z,1016.31
2023-04-08T01:30:50.722Z,1016.30
2023-04-08T01:31:50.704Z,1016.29
2023-04-08T01:32:50.731Z,1016.28
2023-04-08T01:33:50.657Z,1016.27
2023-04-08T01:34:50.645Z,1016.28
2023-04-08T01:35:50.725Z,1016.27
2023-04-08T01:36:50.681Z,1016.27
2023-04-08T01:37:50.620Z,1016.30
2023-04-08T01:38:50.943Z,1016.30
2023-04-08T01:39:50.601Z,1016.31
2023-04-08T01:40:50.599Z,1016.30
2023-04-08T01:41:50.613Z,1016.29
2023-04-08T01:42:50.610Z,1016.30
2023-04-08T01:43:50.628Z,1016.33
2023-04-08T01:44:50.540Z,1016.36
2023-04-08T01:45:50.578Z,1016.37
2023-04-08T01:46:50.559Z,1016.39
2023-04-08T01:47:50.589Z,1016.38
2023-04-08T01:48:50.697Z,1016.35
2023-04-08T01:49:50.534Z,1016.35
2023-04-08T01:50:50.504Z,1016.34
2023-04-08T01:51:50.482Z,1016.33
2023-04-08T01:52:50.483Z,1016.35
2023-04-08T01:53:50.472Z,1016.33
2023-04-08T01:54:50.484Z,1016.33
2023-04-08T01:55:50.440Z,1016.32
2023-04-08T01:56:50.435Z,1016.30
2023-04-08T01:57:50.419Z,1016.27
2023-04-08T01:58:50.688Z,1016.26
2023-04-08T01:59:50.410Z,1016.24
2023-04-08T02:00:50.395Z,1016.24
2023-04-08T02:01:50.444Z,1016.27
2023-04-08T02:02:50.564Z,1016.30
2023-04-08T02:03:50.426Z,1016.29
2023-04-08T02:04:50.478Z,1016.31
2023-04-08T02:05:50.344Z,1016.37
2023-04-08T02:06:50.333Z,1016.41
2023-04-08T02:07:50.307Z,1016.41
2023-04-08T02:08:50.511Z,1016.44
2023-04-08T02:09:50.285Z,1016.48
2023-04-08T02:10:50.282Z,1016.49
2023-04-08T02:11:50.299Z,1016.47
2023-04-08T02:12:50.278Z,1016.46
2023-04-08T02:13:50.305Z,1016.47
2023-04-08T02:14:50.236Z,1016.49
2023-04-08T02:15:50.255Z,1016.52
2023-04-08T02:16:50.217Z,1016.53
2023-04-08T02:17:50.262Z,1016.55
2023-04-08T02:18:50.562Z,1016.54
2023-04-08T02:19:50.186Z,1016.55
2023-04-08T02:20:50.181Z,1016.55
2023-04-08T02:21:50.176Z,1016.54
2023-04-08T02:22:50.156Z,1016.54
2023-04-08T02:23:50.145Z,1016.54
2023-04-08T02:24:50.168Z,1016.52
2023-04-08T02:25:50.124Z,1016.53
2023-04-08T02:26:50.176Z,1016.54
2023-04-08T02:27:50.108Z,1016.52
2023-04-08T02:28:50.450Z,1016.54
2023-04-08T02:29:50.116Z,1016.54
2023-04-08T02:30:50.110Z,1016.54
2023-04-08T02:31:50.112Z,1016.52
2023-04-08T02:32:50.155Z,1016.54
2023-04-08T02:33:50.048Z,1016.55
2023-04-08T02:34:50.040Z,1016.54
2023-04-08T02:35:50.068Z,1016.54
2023-04-08T02:36:50.016Z,1016.56
2023-04-08T02:37:50.008Z,1016.55
2023-04-08T02:38:50.429Z,1016.54
2023-04-08T02:39:50.000Z,1016.55
2023-04-08T02:40:49.965Z,1016.58
2023-04-08T02:41:49.955Z,1016.58
2023-04-08T02:42:49.961Z,1016.59
2023-04-08T02:43:49.948Z,1016.60
2023-04-08T02:44:49.945Z,1016.62
2023-04-08T02:45:49.943Z,1016.63
2023-04-08T02:46:49.903Z,1016.66
2023-04-08T02:47:49.896Z,1016.67
2023-04-08T02:48:50.120Z,1016.70
2023-04-08T02:49:49.904Z,1016.69
2023-04-08T02:50:49.860Z,1016.71
2023-04-08T02:51:49.866Z,1016.71
2023-04-08T02:52:49.865Z,1016.71
2023-04-08T02:53:49.827Z,1016.73
2023-04-08T02:54:50.026Z,1016.74
2023-04-08T02:55:49.823Z,1016.73
2023-04-08T02:56:49.807Z,1016.73
2023-04-08T02:57:49.833Z,1016.76
2023-04-08T02:58:49.922Z,1016.77
2023-04-08T02:59:49.785Z,1016.78
2023-04-08T03:00:49.843Z,1016.77
2023-04-08T03:01:49.799Z,1016.78
2023-04-08T03:02:49.934Z,1016.77
2023-04-08T03:03:49.849Z,1016.77
2023-04-08T03:04:49.737Z,1016.76
2023-04-08T03:05:49.707Z,1016.76
2023-04-08T03:06:49.702Z,1016.76
2023-04-08T03:07:49.731Z,1016.78
2023-04-08T03:08:49.922Z,1016.77
2023-04-08T03:09:49.776Z,1016.75
2023-04-08T03:10:49.657Z,1016.77
2023-04-08T03:11:49.663Z,1016.78
2023-04-08T03:12:49.631Z,1016.79
2023-04-08T03:13:49.626Z,1016.80
2023-04-08T03:14:49.646Z,1016.80
2023-04-08T03:15:49.619Z,1016.80
2023-04-08T03:16:49.617Z,1016.80
2023-04-08T03:17:49.658Z,1016.81
2023-04-08T03:18:49.823Z,1016.83
2023-04-08T03:19:49.572Z,1016.84
2023-04-08T03:20:49.547Z,1016.85
2023-04-08T03:21:49.561Z,1016.87
2023-04-08T03:22:49.543Z,1016.89
2023-04-08T03:23:49.519Z,1016.91
2023-04-08T03:24:49.553Z,1016.91
2023-04-08T03:25:49.516Z,1016.92
2023-04-08T03:26:49.498Z,1016.91
2023-04-08T03:27:49.474Z,1016.91
2023-04-08T03:28:49.822Z,1016.95
2023-04-08T03:29:49.482Z,1016.96
2023-04-08T03:30:49.457Z,1016.97
2023-04-08T03:31:49.444Z,1016.98
2023-04-08T03:32:49.457Z,1016.97
2023-04-08T03:33:49.411Z,1016.95
2023-04-08T03:34:49.423Z,1016.95
2023-04-08T03:35:49.430Z,1016.93
2023-04-08T03:36:49.409Z,1016.93
2023-04-08T03:37:49.394Z,1016.95
2023-04-08T03:38:49.555Z,1016.96
2023-04-08T03:39:49.360Z,1016.98
2023-04-08T03:40:49.360Z,1016.99
2023-04-08T03:41:49.336Z,1016.99
2023-04-08T03:42:49.324Z,1017.01
2023-04-08T03:43:49.340Z,1017.02
2023-04-08T03:44:49.315Z,1017.02
2023-04-08T03:45:49.399Z,1017.03
2023-04-08T03:46:49.277Z,1017.01
2023-04-08T03:47:49.331Z,1017.02
2023-04-08T03:48:49.648Z,1017.01
2023-04-08T03:49:49.284Z,1016.99
2023-04-08T03:50:49.235Z,1017.00
2023-04-08T03:51:49.227Z,1017.02
2023-04-08T03:52:49.228Z,1017.03
2023-04-08T03:53:49.241Z,1017.05
2023-04-08T03:54:49.195Z,1017.09
2023-04-08T03:55:49.168Z,1017.11
2023-04-08T03:56:49.162Z,1017.11
2023-04-08T03:57:49.160Z,1017.12
2023-04-08T03:58:49.359Z,1017.13
2023-04-08T03:59:49.146Z,1017.16
2023-04-08T04:00:49.173Z,1017.18
2023-04-08T04:01:49.125Z,1017.20
2023-04-08T04:02:49.313Z,1017.18
2023-04-08T04:03:49.220Z,1017.17
2023-04-08T04:04:49.080Z,1017.16
2023-04-08T04:05:49.084Z,1017.15
2023-04-08T04:06:49.028Z,1017.15
2023-04-08T04:07:48.990Z,1017.18
2023-04-08T04:08:49.406Z,1017.19
2023-04-08T04:09:49.033Z,1017.18
2023-04-08T04:10:48.988Z,1017.19
2023-04-08T04:11:48.955Z,1017.20
2023-04-08T04:12:49.002Z,1017.20
2023-04-08T04:13:48.960Z,1017.22
2023-04-08T04:14:48.925Z,1017.19
2023-04-08T04:15:48.967Z,1017.23
2023-04-08T04:16:48.898Z,1017.25
2023-04-08T04:17:49.011Z,1017.27
2023-04-08T04:18:49.262Z,1017.26
2023-04-08T04:19:48.870Z,1017.25
2023-04-08T04:20:48.912Z,1017.28
2023-04-08T04:21:48.847Z,1017.32
2023-04-08T04:22:48.828Z,1017.35
2023-04-08T04:23:48.838Z,1017.37
2023-04-08T04:24:48.804Z,1017.38
2023-04-08T04:25:48.862Z,1017.39
2023-04-08T04:26:48.823Z,1017.39
2023-04-08T04:27:48.783Z,1017.39
2023-04-08T04:28:49.631Z,1017.38
2023-04-08T04:29:48.766Z,1017.40
2023-04-08T04:30:48.767Z,1017.39
2023-04-08T04:31:48.758Z,1017.39
2023-04-08T04:32:48.789Z,1017.38
2023-04-08T04:33:48.750Z,1017.37
2023-04-08T04:34:48.714Z,1017.36
2023-04-08T04:35:48.732Z,1017.38
2023-04-08T04:36:48.685Z,1017.40
2023-04-08T04:37:48.677Z,1017.43
2023-04-08T04:38:50.169Z,1017.44
2023-04-08T04:39:48.651Z,1017.45
2023-04-08T04:40:48.679Z,1017.46
2023-04-08T04:41:48.621Z,1017.49
2023-04-08T04:42:48.623Z,1017.52
2023-04-08T04:43:48.671Z,1017.54
2023-04-08T04:44:48.600Z,1017.55
2023-04-08T04:45:48.606Z,1017.58
2023-04-08T04:46:48.643Z,1017.59
2023-04-08T04:47:48.583Z,1017.59
2023-04-08T04:48:48.802Z,1017.61
2023-04-08T04:49:48.553Z,1017.62
2023-04-08T04:50:48.539Z,1017.57
2023-04-08T04:51:48.518Z,1017.55
2023-04-08T04:52:48.544Z,1017.58
2023-04-08T04:53:48.536Z,1017.63
2023-04-08T04:54:48.528Z,1017.65
2023-04-08T04:55:48.483Z,1017.64
2023-04-08T04:56:48.476Z,1017.65
2023-04-08T04:57:48.486Z,1017.65
2023-04-08T04:58:48.738Z,1017.66
2023-04-08T04:59:48.446Z,1017.66
2023-04-08T05:00:48.427Z,1017.69
2023-04-08T05:01:48.587Z,1017.71
2023-04-08T05:02:48.610Z,1017.73
2023-04-08T05:03:48.471Z,1017.72
2023-04-08T05:04:48.424Z,1017.75
2023-04-08T05:05:48.432Z,1017.72
2023-04-08T05:06:48.383Z,1017.73
2023-04-08T05:07:48.357Z,1017.72
2023-04-08T05:08:48.701Z,1017.73
2023-04-08T05:09:48.339Z,1017.73
2023-04-08T05:10:48.353Z,1017.77
2023-04-08T05:11:48.315Z,1017.76
2023-04-08T05:12:48.329Z,1017.76
2023-04-08T05:13:48.345Z,1017.77
2023-04-08T05:14:48.308Z,1017.79
2023-04-08T05:15:48.325Z,1017.79
2023-04-08T05:16:48.279Z,1017.79
2023-04-08T05:17:48.317Z,1017.79
2023-04-08T05:18:48.520Z,1017.80
2023-04-08T05:19:48.248Z,1017.81
2023-04-08T05:20:48.251Z,1017.82
2023-04-08T05:21:48.263Z,1017.83
2023-04-08T05:22:48.211Z,1017.81
2023-04-08T05:23:48.312Z,1017.81
2023-04-08T05:24:48.224Z,1017.80
2023-04-08T05:25:48.173Z,1017.79
2023-04-08T05:26:48.165Z,1017.79
2023-04-08T05:27:48.211Z,1017.78
2023-04-08T05:28:48.332Z,1017.77
2023-04-08T05:29:48.162Z,1017.77
2023-04-08T05:30:48.131Z,1017.80
2023-04-08T05:31:49.015Z,1017.83
2023-04-08T05:32:48.134Z,1017.86
2023-04-08T05:33:48.114Z,1017.88
2023-04-08T05:34:48.108Z,1017.90
2023-04-08T05:35:48.106Z,1017.96
2023-04-08T05:36:48.078Z,1018.00
2023-04-08T05:37:48.066Z,1018.04
2023-04-08T05:38:48.479Z,1018.06
2023-04-08T05:39:48.072Z,1018.08
2023-04-08T05:40:48.027Z,1018.10
2023-04-08T05:41:48.015Z,1018.09
2023-04-08T05:42:48.049Z,1018.09
2023-04-08T05:43:47.999Z,1018.13
2023-04-08T05:44:48.021Z,1018.15
2023-04-08T05:45:47.994Z,1018.16
2023-04-08T05:46:48.002Z,1018.18
2023-04-08T05:47:47.967Z,1018.19
2023-04-08T05:48:48.135Z,1018.18
2023-04-08T05:49:49.275Z,1018.18
2023-04-08T05:50:47.922Z,1018.19
2023-04-08T05:51:47.906Z,1018.19
2023-04-08T05:52:47.922Z,1018.19
2023-04-08T05:53:47.898Z,1018.20
2023-04-08T05:54:47.907Z,1018.21
2023-04-08T05:55:47.862Z,1018.21
2023-04-08T05:56:47.866Z,1018.23
2023-04-08T05:57:47.850Z,1018.22
2023-04-08T05:58:48.023Z,1018.19
2023-04-08T05:59:47.840Z,1018.21
2023-04-08T06:00:47.859Z,1018.20
2023-04-08T06:01:47.914Z,1018.19
2023-04-08T06:02:47.945Z,1018.22
2023-04-08T06:03:47.956Z,1018.22
2023-04-08T06:04:47.884Z,1018.24
2023-04-08T06:05:47.763Z,1018.24
2023-04-08T06:06:47.747Z,1018.23
2023-04-08T06:07:47.746Z,1018.23
2023-04-08T06:08:47.794Z,1018.25
2023-04-08T06:09:47.719Z,1018.26
2023-04-08T06:10:47.711Z,1018.27
2023-04-08T06:11:47.686Z,1018.29
2023-04-08T06:12:47.689Z,1018.31
2023-04-08T06:13:47.669Z,1018.31
2023-04-08T06:14:47.677Z,1018.33
2023-04-08T06:15:47.641Z,1018.33
2023-04-08T06:16:47.671Z,1018.33
2023-04-08T06:17:47.634Z,1018.33
2023-04-08T06:18:47.789Z,1018.34
2023-04-08T06:19:47.636Z,1018.35
2023-04-08T06:20:47.616Z,1018.38
2023-04-08T06:21:47.587Z,1018.42
2023-04-08T06:22:47.580Z,1018.41
2023-04-08T06:23:47.555Z,1018.41
2023-04-08T06:24:47.575Z,1018.42
2023-04-08T06:25:47.559Z,1018.43
2023-04-08T06:26:47.548Z,1018.42
2023-04-08T06:27:47.519Z,1018.43
2023-04-08T06:28:47.577Z,1018.43
2023-04-08T06:29:47.531Z,1018.42
2023-04-08T06:30:47.496Z,1018.45
2023-04-08T06:31:47.529Z,1018.45
2023-04-08T06:32:47.562Z,1018.48
2023-04-08T06:33:47.457Z,1018.50
2023-04-08T06:34:47.469Z,1018.52
2023-04-08T06:35:47.461Z,1018.51
2023-04-08T06:36:47.452Z,1018.55
2023-04-08T06:37:47.418Z,1018.58
2023-04-08T06:38:47.420Z,1018.61
2023-04-08T06:39:47.406Z,1018.62
2023-04-08T06:40:47.394Z,1018.63
2023-04-08T06:41:47.392Z,1018.64
2023-04-08T06:42:47.377Z,1018.66
2023-04-08T06:43:47.688Z,1018.66
2023-04-08T06:44:47.357Z,1018.68
2023-04-08T06:45:47.356Z,1018.67
2023-04-08T06:46:47.335Z,1018.68
2023-04-08T06:47:47.359Z,1018.69
2023-04-08T06:48:47.322Z,1018.70
2023-04-08T06:49:47.312Z,1018.72
2023-04-08T06:50:47.284Z,1018.73
2023-04-08T06:51:47.299Z,1018.73
2023-04-08T06:52:47.276Z,1018.75
2023-04-08T06:53:47.257Z,1018.77
2023-04-08T06:54:47.265Z,1018.79
2023-04-08T06:55:47.239Z,1018.82
2023-04-08T06:56:47.555Z,1018.82
2023-04-08T06:57:47.210Z,1018.84
2023-04-08T06:58:47.210Z,1018.87
2023-04-08T06:59:47.212Z,1018.88
2023-04-08T07:00:47.258Z,1018.87
2023-04-08T07:01:47.263Z,1018.88
2023-04-08T07:02:47.322Z,1018.88
2023-04-08T07:03:47.209Z,1018.88
2023-04-08T07:04:47.175Z,1018.88
2023-04-08T07:05:47.144Z,1018.89
2023-04-08T07:06:47.155Z,1018.89
2023-04-08T07:07:47.129Z,1018.91
2023-04-08T07:08:47.138Z,1018.90
2023-04-08T07:09:47.132Z,1018.90
2023-04-08T07:10:47.090Z,1018.90
2023-04-08T07:11:47.078Z,1018.90
2023-04-08T07:12:47.083Z,1018.92
2023-04-08T07:13:47.056Z,1018.94
2023-04-08T07:14:47.421Z,1018.95
2023-04-08T07:15:47.033Z,1018.95
2023-04-08T07:16:47.068Z,1018.97
2023-04-08T07:17:47.139Z,1018.97
2023-04-08T07:18:47.004Z,1018.95
2023-04-08T07:19:47.086Z,1018.95
2023-04-08T07:20:46.989Z,1018.98
2023-04-08T07:21:46.976Z,1019.00
2023-04-08T07:22:46.975Z,1019.02
2023-04-08T07:23:47.122Z,1019.03
2023-04-08T07:24:46.982Z,1019.04
2023-04-08T07:25:46.966Z,1019.06
2023-04-08T07:26:46.930Z,1019.06
2023-04-08T07:27:46.908Z,1019.06
2023-04-08T07:28:46.907Z,1019.08
2023-04-08T07:29:46.895Z,1019.10
2023-04-08T07:30:46.991Z,1019.13
2023-04-08T07:31:46.876Z,1019.14
2023-04-08T07:32:46.980Z,1019.14
2023-04-08T07:33:46.848Z,1019.17
2023-04-08T07:34:46.852Z,1019.18
2023-04-08T07:35:46.849Z,1019.18
2023-04-08T07:36:46.813Z,1019.20
2023-04-08T07:37:46.815Z,1019.19
2023-04-08T07:38:46.803Z,1019.19
2023-04-08T07:39:46.809Z,1019.20
2023-04-08T07:40:46.777Z,1019.21
2023-04-08T07:41:46.764Z,1019.23
2023-04-08T07:42:46.763Z,1019.23
2023-04-08T07:43:46.742Z,1019.23
2023-04-08T07:44:46.782Z,1019.24
2023-04-08T07:45:46.741Z,1019.24
2023-04-08T07:46:46.720Z,1019.23
2023-04-08T07:47:46.729Z,1019.23
2023-04-08T07:48:46.732Z,1019.24
2023-04-08T07:49:46.701Z,1019.23
2023-04-08T07:51:09.488Z,1019.25
2023-04-08T07:51:46.660Z,1019.25
2023-04-08T07:52:46.762Z,1019.27
2023-04-08T07:53:46.677Z,1019.29
2023-04-08T07:54:46.769Z,1019.30
2023-04-08T07:55:46.657Z,1019.30
2023-04-08T07:56:46.613Z,1019.30
2023-04-08T07:57:46.621Z,1019.30
2023-04-08T07:58:46.584Z,1019.29
2023-04-08T07:59:46.577Z,1019.32
2023-04-08T08:00:46.605Z,1019.33
2023-04-08T08:01:46.592Z,1019.34
2023-04-08T08:02:46.698Z,1019.35
2023-04-08T08:03:46.699Z,1019.35
2023-04-08T08:04:46.562Z,1019.35
2023-04-08T08:05:46.531Z,1019.34
2023-04-08T08:06:46.507Z,1019.34
2023-04-08T08:07:46.520Z,1019.34
2023-04-08T08:08:46.525Z,1019.33
2023-04-08T08:09:46.505Z,1019.35
2023-04-08T08:10:46.480Z,1019.35
2023-04-08T08:11:46.458Z,1019.35
2023-04-08T08:12:46.452Z,1019.32
2023-04-08T08:13:46.442Z,1019.37
2023-04-08T08:14:46.421Z,1019.36
2023-04-08T08:15:46.487Z,1019.38
2023-04-08T08:16:46.412Z,1019.40
2023-04-08T08:17:46.434Z,1019.37
2023-04-08T08:18:46.457Z,1019.38
2023-04-08T08:19:46.388Z,1019.37
2023-04-08T08:20:46.359Z,1019.38
2023-04-08T08:21:46.381Z,1019.40
2023-04-08T08:22:56.758Z,1019.40
2023-04-08T08:23:46.384Z,1019.41
2023-04-08T08:24:46.314Z,1019.42
2023-04-08T08:25:46.324Z,1019.42
2023-04-08T08:26:46.293Z,1019.44
2023-04-08T08:27:46.334Z,1019.46
2023-04-08T08:28:46.288Z,1019.46
2023-04-08T08:29:46.274Z,1019.47
2023-04-08T08:30:46.257Z,1019.47
2023-04-08T08:31:46.440Z,1019.49
2023-04-08T08:32:46.263Z,1019.51
2023-04-08T08:33:46.243Z,1019.53
2023-04-08T08:34:46.238Z,1019.54
2023-04-08T08:35:46.224Z,1019.56
2023-04-08T08:36:46.207Z,1019.56
2023-04-08T08:37:46.227Z,1019.57
2023-04-08T08:38:46.185Z,1019.56
2023-04-08T08:39:46.184Z,1019.56
2023-04-08T08:40:46.158Z,1019.57
2023-04-08T08:41:46.157Z,1019.58
2023-04-08T08:42:46.187Z,1019.60
2023-04-08T08:43:46.152Z,1019.59
2023-04-08T08:44:46.107Z,1019.61
2023-04-08T08:45:46.116Z,1019.62
2023-04-08T08:46:46.141Z,1019.65
2023-04-08T08:47:46.239Z,1019.63
2023-04-08T08:48:46.094Z,1019.63
2023-04-08T08:49:46.069Z,1019.64
2023-04-08T08:50:46.062Z,1019.63
2023-04-08T08:51:46.058Z,1019.64
2023-04-08T08:52:46.051Z,1019.64
2023-04-08T08:53:46.032Z,1019.63
2023-04-08T08:54:46.020Z,1019.61
2023-04-08T08:56:13.518Z,1019.62
2023-04-08T08:56:46.001Z,1019.64
2023-04-08T08:57:46.078Z,1019.66
2023-04-08T08:58:46.025Z,1019.68
2023-04-08T08:59:46.101Z,1019.71
2023-04-08T09:00:45.956Z,1019.71
2023-04-08T09:01:45.997Z,1019.71
2023-04-08T09:02:46.165Z,1019.73
2023-04-08T09:03:46.070Z,1019.74
2023-04-08T09:04:46.088Z,1019.76
2023-04-08T09:05:45.986Z,1019.76
2023-04-08T09:06:45.895Z,1019.76
2023-04-08T09:07:45.875Z,1019.77
2023-04-08T09:08:45.864Z,1019.79
2023-04-08T09:09:45.928Z,1019.80
2023-04-08T09:10:45.868Z,1019.81
2023-04-08T09:11:45.833Z,1019.82
2023-04-08T09:12:45.820Z,1019.84
2023-04-08T09:13:45.880Z,1019.85
2023-04-08T09:14:45.798Z,1019.86
2023-04-08T09:15:45.796Z,1019.88
2023-04-08T09:16:45.821Z,1019.90
2023-04-08T09:17:45.835Z,1019.90
2023-04-08T09:18:45.845Z,1019.92
2023-04-08T09:19:45.762Z,1019.94
2023-04-08T09:20:45.738Z,1019.94
2023-04-08T09:21:45.739Z,1019.95
2023-04-08T09:22:45.714Z,1019.98
2023-04-08T09:23:45.747Z,1020.00
2023-04-08T09:24:45.723Z,1019.97
2023-04-08T09:25:45.696Z,1020.01
2023-04-08T09:26:45.679Z,1020.02
2023-04-08T09:27:45.670Z,1020.04
2023-04-08T09:28:45.680Z,1020.05
2023-04-08T09:29:45.655Z,1020.06
2023-04-08T09:30:45.642Z,1020.05
2023-04-08T09:31:45.683Z,1020.08
2023-04-08T09:32:45.654Z,1020.08
2023-04-08T09:33:45.621Z,1020.11
2023-04-08T09:34:45.593Z,1020.10
2023-04-08T09:35:45.586Z,1020.11
2023-04-08T09:36:45.564Z,1020.14
2023-04-08T09:37:45.586Z,1020.13
2023-04-08T09:38:45.603Z,1020.13
2023-04-08T09:39:45.550Z,1020.14
2023-04-08T09:40:45.528Z,1020.12
2023-04-08T09:41:45.518Z,1020.14
2023-04-08T09:42:45.524Z,1020.13
2023-04-08T09:43:45.534Z,1020.15
2023-04-08T09:44:45.512Z,1020.13
2023-04-08T09:45:45.504Z,1020.11
2023-04-08T09:46:45.495Z,1020.12
2023-04-08T09:47:45.487Z,1020.11
2023-04-08T09:48:45.486Z,1020.13
2023-04-08T09:49:45.439Z,1020.10
2023-04-08T09:50:45.425Z,1020.10
2023-04-08T09:51:45.426Z,1020.11
2023-04-08T09:52:45.534Z,1020.11
2023-04-08T09:53:45.429Z,1020.12
2023-04-08T09:54:45.447Z,1020.12
2023-04-08T09:55:45.380Z,1020.10
2023-04-08T09:56:45.376Z,1020.09
2023-04-08T09:57:45.368Z,1020.12
2023-04-08T09:58:45.407Z,1020.10
2023-04-08T09:59:45.348Z,1020.13
2023-04-08T10:00:45.424Z,1020.14
2023-04-08T10:01:45.408Z,1020.13
2023-04-08T10:02:45.398Z,1020.13
2023-04-08T10:03:45.466Z,1020.13
2023-04-08T10:04:45.324Z,1020.11
2023-04-08T10:05:45.302Z,1020.10
2023-04-08T10:06:45.260Z,1020.11
2023-04-08T10:07:45.261Z,1020.11
2023-04-08T10:08:45.298Z,1020.10
2023-04-08T10:09:45.266Z,1020.10
2023-04-08T10:10:47.358Z,1020.12
2023-04-08T10:11:45.214Z,1020.11
2023-04-08T10:12:45.220Z,1020.09
2023-04-08T10:13:45.247Z,1020.10
2023-04-08T10:14:51.237Z,1020.09
2023-04-08T10:15:45.169Z,1020.10
2023-04-08T10:16:45.807Z,1020.09
2023-04-08T10:17:45.233Z,1020.08
2023-04-08T10:18:45.200Z,1020.10
2023-04-08T10:19:45.133Z,1020.09
2023-04-08T10:20:45.147Z,1020.10
2023-04-08T10:21:45.127Z,1020.09
2023-04-08T10:22:45.085Z,1020.09
2023-04-08T10:23:45.096Z,1020.10
2023-04-08T10:24:45.078Z,1020.10
2023-04-08T10:25:45.234Z,1020.10
2023-04-08T10:26:45.095Z,1020.11
2023-04-08T10:27:45.055Z,1020.12
2023-04-08T10:28:45.112Z,1020.13
2023-04-08T10:29:45.028Z,1020.14
2023-04-08T10:30:45.011Z,1020.14
2023-04-08T10:31:45.030Z,1020.14
2023-04-08T10:32:45.031Z,1020.12
2023-04-08T10:33:45.009Z,1020.12
2023-04-08T10:34:44.971Z,1020.14
2023-04-08T10:35:44.982Z,1020.13
2023-04-08T10:36:44.948Z,1020.12
2023-04-08T10:37:44.951Z,1020.11
2023-04-08T10:38:44.949Z,1020.10
2023-04-08T10:39:44.918Z,1020.11
2023-04-08T10:40:44.910Z,1020.12
2023-04-08T10:41:44.924Z,1020.14
2023-04-08T10:42:44.898Z,1020.15
2023-04-08T10:43:44.893Z,1020.17
2023-04-08T10:44:44.867Z,1020.15
2023-04-08T10:45:47.955Z,1020.14
2023-04-08T10:46:44.867Z,1020.16
2023-04-08T10:47:44.853Z,1020.13
2023-04-08T10:48:44.862Z,1020.15
2023-04-08T10:49:44.813Z,1020.13
2023-04-08T10:50:44.829Z,1020.14
2023-04-08T10:51:44.834Z,1020.14
2023-04-08T10:52:44.780Z,1020.14
2023-04-08T10:53:44.784Z,1020.09
2023-04-08T10:54:44.763Z,1020.09
2023-04-08T10:55:44.749Z,1020.11
2023-04-08T10:56:44.760Z,1020.13
2023-04-08T10:57:44.721Z,1020.12
2023-04-08T10:58:44.769Z,1020.13
2023-04-08T10:59:44.744Z,1020.12
2023-04-08T11:00:44.686Z,1020.09
2023-04-08T11:01:44.753Z,1020.07
2023-04-08T11:02:44.788Z,1020.06
2023-04-08T11:03:44.733Z,1020.05
2023-04-08T11:04:44.703Z,1020.08
2023-04-08T11:05:44.642Z,1020.12
2023-04-08T11:06:44.633Z,1020.12
2023-04-08T11:07:44.631Z,1020.12
2023-04-08T11:08:44.713Z,1020.14
2023-04-08T11:09:44.599Z,1020.18
2023-04-08T11:10:44.592Z,1020.17
2023-04-08T11:11:44.582Z,1020.16
2023-04-08T11:12:44.570Z,1020.19
2023-04-08T11:13:52.639Z,1020.19
2023-04-08T11:14:44.543Z,1020.20
2023-04-08T11:15:44.604Z,1020.20
2023-04-08T11:16:44.520Z,1020.21
2023-04-08T11:17:44.582Z,1020.22
2023-04-08T11:18:44.531Z,1020.23
2023-04-08T11:19:44.539Z,1020.23
2023-04-08T11:20:44.504Z,1020.21
2023-04-08T11:21:44.493Z,1020.19
2023-04-08T11:22:44.476Z,1020.20
2023-04-08T11:23:44.477Z,1020.19
2023-04-08T11:24:44.445Z,1020.17
2023-04-08T11:25:44.433Z,1020.16
2023-04-08T11:26:44.424Z,1020.15
2023-04-08T11:27:44.421Z,1020.16
2023-04-08T11:28:44.432Z,1020.15
2023-04-08T11:29:44.402Z,1020.16
2023-04-08T11:30:44.438Z,1020.16
2023-04-08T11:31:44.595Z,1020.17
2023-04-08T11:32:44.385Z,1020.19
2023-04-08T11:33:44.369Z,1020.20
2023-04-08T11:34:44.337Z,1020.21
2023-04-08T11:35:44.389Z,1020.22
2023-04-08T11:36:44.312Z,1020.24
2023-04-08T11:37:44.312Z,1020.22
2023-04-08T11:38:44.362Z,1020.21
2023-04-08T11:39:44.293Z,1020.22
2023-04-08T11:40:44.297Z,1020.24
2023-04-08T11:41:44.272Z,1020.25
2023-04-08T11:42:45.989Z,1020.29
2023-04-08T11:43:44.262Z,1020.25
2023-04-08T11:44:44.228Z,1020.28
2023-04-08T11:45:44.237Z,1020.28
2023-04-08T11:46:44.255Z,1020.26
2023-04-08T11:47:44.257Z,1020.24
2023-04-08T11:48:44.245Z,1020.22
2023-04-08T11:49:44.179Z,1020.23
2023-04-08T11:50:44.188Z,1020.24
2023-04-08T11:51:44.163Z,1020.25
2023-04-08T11:52:44.154Z,1020.22
2023-04-08T11:53:44.180Z,1020.23
2023-04-08T11:54:44.137Z,1020.21
2023-04-08T11:55:44.117Z,1020.20
2023-04-08T11:56:44.132Z,1020.20
2023-04-08T11:57:44.105Z,1020.13
2023-04-08T11:58:44.124Z,1020.14
2023-04-08T11:59:44.077Z,1020.14
2023-04-08T12:00:44.090Z,1020.15
2023-04-08T12:01:44.104Z,1020.13
2023-04-08T12:02:44.093Z,1020.11
2023-04-08T12:03:44.226Z,1020.10
2023-04-08T12:04:44.092Z,1020.09
2023-04-08T12:05:44.012Z,1020.05